Time;durP1;ratioP1;P1;durP2;ratioP2;P2;SDS_P1;SDS_P2;PMS_P1;PMS_P2;Temp;Humidity;BMP_temperature;BMP_pressure;BME280_temperature;BME280_humidity;BME280_pressure;Samples;Min_cycle;Max_cycle;Signal;HPM_P1;HPM_P2
2020/12/01 00:00:00;;;;;;;26.93;17.60;;;6.20;54.80;;;;;;5060486;28;20434;-42
2020/12/01 00:02:26;;;;;;;24.43;15.80;;;6.30;55.10;;;;;;5062174;28;20328;-40
2020/12/01 00:04:51;;;;;;;26.57;16.60;;;6.30;55.60;;;;;;5059070;28;20192;-40
2020/12/01 00:07:18;;;;;;;25.10;14.63;;;6.40;55.70;;;;;;5054650;28;20494;-40
2020/12/01 00:09:44;;;;;;;21.23;14.70;;;6.50;55.50;;;;;;5061270;28;20449;-40
2020/12/01 00:12:10;;;;;;;22.07;15.10;;;6.60;55.40;;;;;;5066653;28;20453;-40
2020/12/01 00:14:35;;;;;;;26.60;15.83;;;6.70;55.20;;;;;;5057867;28;20450;-40
2020/12/01 00:17:01;;;;;;;29.33;16.27;;;6.70;55.20;;;;;;5065442;28;20194;-40
2020/12/01 00:19:26;;;;;;;22.77;15.70;;;6.30;55.70;;;;;;5052551;28;20223;-40
2020/12/01 00:21:52;;;;;;;23.17;16.07;;;6.20;56.60;;;;;;5061882;28;20528;-42
2020/12/01 00:24:17;;;;;;;25.27;16.13;;;5.90;57.40;;;;;;5060617;28;20275;-40
2020/12/01 00:26:43;;;;;;;26.93;17.90;;;5.60;58.60;;;;;;5062584;28;20230;-40
2020/12/01 00:29:09;;;;;;;23.93;15.67;;;5.40;59.50;;;;;;5062675;28;20200;-42
2020/12/01 00:31:42;;;;;;;25.80;16.70;;;5.20;60.90;;;;;;5067396;28;20211;-40
2020/12/01 00:34:12;;;;;;;31.40;16.83;;;5.00;61.80;;;;;;5064328;28;20855;-40
2020/12/01 00:36:40;;;;;;;27.60;16.87;;;5.20;62.70;;;;;;5065983;28;20480;-40
2020/12/01 00:39:06;;;;;;;25.27;16.30;;;5.50;61.70;;;;;;5058186;28;20449;-41
2020/12/01 00:41:32;;;;;;;26.73;17.60;;;5.60;60.90;;;;;;5060811;28;20450;-40
2020/12/01 00:43:58;;;;;;;26.23;16.87;;;5.60;60.50;;;;;;5058506;28;20449;-40
2020/12/01 00:46:23;;;;;;;27.33;15.87;;;5.30;60.90;;;;;;5057481;28;20196;-43
2020/12/01 00:48:49;;;;;;;31.10;17.00;;;4.90;62.50;;;;;;5055684;28;20235;-42
2020/12/01 00:51:14;;;;;;;23.80;16.07;;;4.70;63.70;;;;;;5056261;28;20192;-43
2020/12/01 00:53:40;;;;;;;24.50;15.90;;;4.50;64.90;;;;;;5057165;28;20192;-41
2020/12/01 00:56:06;;;;;;;26.00;16.47;;;4.40;66.00;;;;;;5064335;28;20639;-42
2020/12/01 00:58:31;;;;;;;28.80;19.17;;;4.10;66.90;;;;;;5062201;28;20923;-42
2020/12/01 01:00:57;;;;;;;26.37;15.93;;;4.00;67.70;;;;;;5064965;28;20196;-42
2020/12/01 01:03:23;;;;;;;30.47;18.27;;;4.10;68.50;;;;;;5051850;28;20200;-42
2020/12/01 01:05:49;;;;;;;23.50;16.70;;;4.10;68.40;;;;;;5053257;28;20199;-42
2020/12/01 01:08:15;;;;;;;27.97;17.20;;;4.20;68.20;;;;;;5064467;28;20251;-42
2020/12/01 01:10:41;;;;;;;30.13;18.20;;;4.30;68.20;;;;;;5059855;28;20927;-42
2020/12/01 01:13:06;;;;;;;31.57;18.30;;;4.40;67.50;;;;;;5057234;28;20310;-42
2020/12/01 01:15:34;;;;;;;27.13;17.20;;;4.70;67.30;;;;;;5067615;28;20521;-42
2020/12/01 01:18:01;;;;;;;28.97;17.83;;;5.00;66.30;;;;;;5063817;28;20204;-42
2020/12/01 01:20:27;;;;;;;28.20;17.10;;;5.00;65.60;;;;;;5066731;28;20782;-42
2020/12/01 01:22:53;;;;;;;30.23;18.27;;;4.90;65.60;;;;;;5061187;28;20535;-42
2020/12/01 01:25:19;;;;;;;21.07;13.83;;;5.10;65.80;;;;;;5057063;28;20438;-42
2020/12/01 01:27:46;;;;;;;23.77;15.90;;;4.90;65.60;;;;;;5066585;28;20843;-42
2020/12/01 01:30:14;;;;;;;21.90;14.53;;;4.90;65.40;;;;;;5062934;28;20513;-42
2020/12/01 01:32:40;;;;;;;21.13;13.70;;;5.00;65.60;;;;;;5061292;28;20439;-42
2020/12/01 01:35:05;;;;;;;23.70;14.30;;;4.60;65.90;;;;;;5068027;28;20905;-42
2020/12/01 01:37:31;;;;;;;23.40;14.37;;;4.60;67.10;;;;;;5056949;28;20194;-42
2020/12/01 01:39:56;;;;;;;23.33;14.80;;;5.00;66.80;;;;;;5055504;28;20196;-42
2020/12/01 01:45:40;;;;;;;24.27;14.73;;;5.30;65.50;;;;;;5060272;28;20305;-42
2020/12/01 01:48:32;;;;;;;24.00;14.30;;;5.40;64.90;;;;;;5059930;28;20492;-42
2020/12/01 01:51:06;;;;;;;20.97;14.23;;;5.40;64.90;;;;;;5066006;28;20467;-42
2020/12/01 01:53:34;;;;;;;24.90;16.27;;;5.50;65.30;;;;;;5053869;28;20953;-42
2020/12/01 01:56:05;;;;;;;21.60;14.67;;;5.80;64.60;;;;;;5064026;28;20849;-42
2020/12/01 01:58:35;;;;;;;20.30;13.50;;;6.00;63.90;;;;;;5062948;28;20450;-42
2020/12/01 02:01:10;;;;;;;24.20;14.80;;;6.20;63.00;;;;;;5060003;28;20781;-43
2020/12/01 02:03:45;;;;;;;21.30;13.70;;;6.20;62.60;;;;;;5062410;28;20854;-42
2020/12/01 02:06:38;;;;;;;20.27;14.20;;;6.00;63.20;;;;;;5058351;28;20560;-42
2020/12/01 02:09:12;;;;;;;23.50;14.83;;;6.30;63.00;;;;;;5063033;28;20491;-42
2020/12/01 02:11:40;;;;;;;24.83;14.03;;;6.30;62.50;;;;;;5062049;28;20748;-42
2020/12/01 02:14:55;;;;;;;23.13;14.57;;;6.40;62.90;;;;;;5066789;28;20440;-42
2020/12/01 02:17:27;;;;;;;25.53;15.10;;;6.40;62.70;;;;;;5053809;28;20905;-43
2020/12/01 02:19:55;;;;;;;23.17;14.03;;;6.60;62.10;;;;;;5066300;28;20447;-42
2020/12/01 02:22:23;;;;;;;23.50;14.97;;;6.70;62.50;;;;;;5071735;28;20449;-42
2020/12/01 02:24:51;;;;;;;22.33;13.43;;;6.60;62.00;;;;;;5058296;28;20471;-43
2020/12/01 02:27:21;;;;;;;23.27;14.17;;;6.60;62.00;;;;;;5065889;28;20477;-43
2020/12/01 02:29:49;;;;;;;19.47;14.07;;;6.60;62.00;;;;;;5058148;28;20439;-43
2020/12/01 02:32:16;;;;;;;20.70;13.60;;;6.80;61.80;;;;;;5068200;28;20525;-43
2020/12/01 02:34:44;;;;;;;18.03;11.97;;;6.90;61.30;;;;;;5065997;28;20441;-42
2020/12/01 02:37:12;;;;;;;19.67;13.07;;;7.00;60.80;;;;;;5062766;28;20949;-43
2020/12/01 02:39:38;;;;;;;24.30;13.53;;;7.00;60.90;;;;;;5066859;28;20469;-42
2020/12/01 02:42:11;;;;;;;19.27;13.47;;;7.10;60.60;;;;;;5068862;28;20523;-43
2020/12/01 02:44:37;;;;;;;21.80;13.10;;;7.20;60.50;;;;;;5063962;28;20227;-43
2020/12/01 02:47:04;;;;;;;20.20;12.63;;;7.20;60.20;;;;;;5059074;28;20500;-42
2020/12/01 02:49:31;;;;;;;18.70;12.50;;;7.10;60.50;;;;;;5070894;28;20249;-42
2020/12/01 02:51:56;;;;;;;18.13;12.20;;;7.20;60.60;;;;;;5065859;28;20439;-43
2020/12/01 02:54:22;;;;;;;18.37;11.93;;;7.20;60.30;;;;;;5061875;28;20443;-43
2020/12/01 02:56:48;;;;;;;16.50;11.40;;;7.30;60.10;;;;;;5062479;28;20578;-42
2020/12/01 02:59:13;;;;;;;18.53;11.23;;;7.20;59.90;;;;;;5066298;28;20217;-43
2020/12/01 03:01:39;;;;;;;16.47;12.20;;;7.20;59.60;;;;;;5064605;28;20690;-43
2020/12/01 03:04:05;;;;;;;19.13;12.10;;;7.30;59.70;;;;;;5057929;28;20189;-42
2020/12/01 03:06:31;;;;;;;19.77;12.50;;;7.10;60.30;;;;;;5051395;28;22196;-43
2020/12/01 03:08:56;;;;;;;17.50;12.63;;;7.20;60.50;;;;;;5067533;28;20227;-43
2020/12/01 03:11:22;;;;;;;17.50;13.00;;;6.80;60.90;;;;;;5061415;28;20192;-43
2020/12/01 03:13:48;;;;;;;16.90;11.77;;;6.60;61.90;;;;;;5064426;28;20627;-43
2020/12/01 03:16:14;;;;;;;18.67;11.53;;;6.40;62.80;;;;;;5064091;28;20444;-43
2020/12/01 03:18:42;;;;;;;20.17;12.60;;;6.10;64.30;;;;;;5068945;28;20561;-43
2020/12/01 03:21:09;;;;;;;19.90;11.30;;;6.00;65.10;;;;;;5065075;28;20192;-42
2020/12/01 03:23:35;;;;;;;19.10;10.90;;;6.00;65.50;;;;;;5062320;28;20443;-42
2020/12/01 03:26:01;;;;;;;17.97;11.50;;;6.10;65.90;;;;;;5061881;28;20430;-42
2020/12/01 03:28:28;;;;;;;19.00;11.33;;;6.20;65.40;;;;;;5061958;28;20224;-43
2020/12/01 03:30:54;;;;;;;16.97;10.30;;;6.40;64.80;;;;;;5069966;28;20441;-43
2020/12/01 03:33:20;;;;;;;18.03;10.20;;;6.20;64.90;;;;;;5070306;28;20447;-42
2020/12/01 03:35:46;;;;;;;13.90;9.60;;;6.20;65.90;;;;;;5067163;28;20272;-43
2020/12/01 03:38:12;;;;;;;17.70;10.57;;;6.30;65.90;;;;;;5060883;28;20534;-43
2020/12/01 03:40:37;;;;;;;16.00;10.23;;;6.30;65.70;;;;;;5059354;28;20278;-43
2020/12/01 03:43:03;;;;;;;13.10;8.73;;;6.60;65.10;;;;;;5061001;28;20200;-43
2020/12/01 03:45:30;;;;;;;15.30;9.60;;;6.70;64.60;;;;;;5067629;28;20192;-43
2020/12/01 03:47:56;;;;;;;14.27;9.07;;;6.90;64.10;;;;;;5060012;28;20224;-43
2020/12/01 03:50:25;;;;;;;12.93;9.20;;;7.00;63.70;;;;;;5059009;28;20442;-43
2020/12/01 03:52:51;;;;;;;15.93;9.60;;;7.10;63.50;;;;;;5059770;28;20579;-43
2020/12/01 03:55:17;;;;;;;13.17;7.60;;;7.00;63.20;;;;;;5060651;28;20443;-43
2020/12/01 03:57:43;;;;;;;14.40;8.93;;;7.00;63.50;;;;;;5068553;28;20442;-43
2020/12/01 04:00:21;;;;;;;13.40;8.77;;;7.00;64.00;;;;;;5064872;28;20474;-43
2020/12/01 04:02:48;;;;;;;12.23;8.43;;;6.90;64.00;;;;;;5063700;28;20222;-43
2020/12/01 04:05:15;;;;;;;11.03;7.83;;;6.70;65.20;;;;;;5064596;28;20445;-43
2020/12/01 04:07:41;;;;;;;10.70;7.83;;;6.90;65.20;;;;;;5069928;28;20501;-43
2020/12/01 04:10:06;;;;;;;15.50;8.57;;;6.90;65.10;;;;;;5061680;28;21301;-43
2020/12/01 04:12:32;;;;;;;13.77;8.13;;;7.00;65.30;;;;;;5067880;28;20569;-43
2020/12/01 04:15:00;;;;;;;12.07;8.47;;;7.20;64.70;;;;;;5062966;28;20883;-42
2020/12/01 04:17:26;;;;;;;10.47;7.13;;;7.10;64.30;;;;;;5069161;28;20437;-43
2020/12/01 04:19:51;;;;;;;15.03;8.83;;;7.10;65.00;;;;;;5065888;28;20926;-43
2020/12/01 04:22:17;;;;;;;11.37;8.20;;;7.10;65.00;;;;;;5056530;28;20283;-43
2020/12/01 04:24:43;;;;;;;12.73;9.20;;;7.20;64.50;;;;;;5065766;28;20271;-43
2020/12/01 04:27:09;;;;;;;13.80;8.90;;;7.30;64.10;;;;;;5066196;28;20224;-43
2020/12/01 04:29:36;;;;;;;15.17;8.53;;;7.40;64.60;;;;;;5060946;28;20246;-41
2020/12/01 04:32:02;;;;;;;12.77;8.37;;;7.60;63.60;;;;;;5066471;28;20921;-41
2020/12/01 04:34:29;;;;;;;20.30;8.70;;;7.70;63.10;;;;;;5059837;28;20446;-43
2020/12/01 04:36:54;;;;;;;12.23;8.73;;;7.60;62.90;;;;;;5063480;28;20442;-43
2020/12/01 04:39:20;;;;;;;14.37;10.03;;;7.30;63.70;;;;;;5068595;28;20448;-43
2020/12/01 04:41:46;;;;;;;9.80;8.07;;;7.40;64.00;;;;;;5064409;28;20188;-43
2020/12/01 04:44:29;;;;;;;18.73;10.03;;;7.50;63.80;;;;;;5060321;28;20629;-43
2020/12/01 04:46:57;;;;;;;12.77;8.10;;;7.70;63.20;;;;;;5053002;28;20268;-43
2020/12/01 04:49:28;;;;;;;11.43;8.13;;;7.80;62.80;;;;;;5064983;28;20446;-42
2020/12/01 04:52:31;;;;;;;13.37;8.90;;;7.80;62.70;;;;;;5068104;28;20529;-41
2020/12/01 04:55:15;;;;;;;10.20;7.87;;;7.90;62.60;;;;;;5067042;28;20450;-43
2020/12/01 04:57:56;;;;;;;10.87;8.17;;;8.00;62.10;;;;;;5061129;28;20445;-43
2020/12/01 05:00:59;;;;;;;10.10;7.67;;;8.00;62.10;;;;;;5058128;28;22230;-43
2020/12/01 05:03:41;;;;;;;11.00;7.70;;;7.80;62.60;;;;;;5054869;28;20450;-45
2020/12/01 05:09:03;;;;;;;9.97;8.00;;;7.80;63.10;;;;;;5051728;28;21005;-43
2020/12/01 05:12:03;;;;;;;13.37;8.27;;;7.80;63.60;;;;;;5065809;28;20450;-41
2020/12/01 05:14:42;;;;;;;12.33;8.30;;;7.90;63.50;;;;;;5052549;28;20624;-43
2020/12/01 05:17:26;;;;;;;13.30;8.33;;;7.90;63.70;;;;;;5063037;28;20478;-43
2020/12/01 05:19:52;;;;;;;12.20;9.27;;;7.90;63.60;;;;;;5058862;28;20474;-44
2020/12/01 05:22:19;;;;;;;11.60;8.13;;;8.00;63.50;;;;;;5062469;28;20969;-42
2020/12/01 05:24:48;;;;;;;15.40;9.47;;;8.10;63.10;;;;;;5062443;28;20193;-43
2020/12/01 05:27:40;;;;;;;13.00;8.73;;;8.20;62.80;;;;;;5057486;28;20483;-43
2020/12/01 05:30:10;;;;;;;12.07;7.93;;;8.30;62.40;;;;;;5054309;28;20496;-43
2020/12/01 05:32:42;;;;;;;12.43;8.33;;;8.30;62.00;;;;;;5064963;28;20449;-44
2020/12/01 05:35:10;;;;;;;11.60;8.10;;;8.40;61.90;;;;;;5064114;28;20438;-43
2020/12/01 05:37:36;;;;;;;11.50;8.27;;;8.30;61.90;;;;;;5067391;28;20446;-43
2020/12/01 05:40:08;;;;;;;13.60;9.27;;;8.30;62.00;;;;;;5065338;28;20936;-43
2020/12/01 05:42:41;;;;;;;11.47;8.47;;;8.30;62.00;;;;;;5053945;28;20205;-43
2020/12/01 05:45:07;;;;;;;13.70;8.23;;;8.30;62.10;;;;;;5071503;28;20446;-44
2020/12/01 05:47:42;;;;;;;12.50;8.73;;;8.30;62.00;;;;;;5057625;28;20485;-43
2020/12/01 05:50:20;;;;;;;13.87;9.83;;;8.30;61.90;;;;;;5057815;28;20913;-43
2020/12/01 05:53:01;;;;;;;14.90;8.90;;;8.40;61.90;;;;;;5059852;28;20786;-43
2020/12/01 05:55:28;;;;;;;12.03;9.10;;;8.40;62.00;;;;;;5077724;28;20831;-43
2020/12/01 05:57:59;;;;;;;14.13;10.07;;;8.40;62.00;;;;;;5069331;28;20430;-43
2020/12/01 06:00:36;;;;;;;14.00;9.20;;;8.40;61.90;;;;;;5065159;28;20799;-43
2020/12/01 06:03:17;;;;;;;16.10;8.40;;;8.40;61.80;;;;;;5064888;28;20462;-43
2020/12/01 06:05:48;;;;;;;12.20;8.80;;;8.30;61.90;;;;;;5058667;28;20480;-44
2020/12/01 06:08:30;;;;;;;13.30;9.10;;;8.30;62.00;;;;;;5067709;28;20496;-43
2020/12/01 06:11:21;;;;;;;15.93;9.50;;;8.30;62.00;;;;;;5070948;28;20510;-44
2020/12/01 06:13:47;;;;;;;15.30;10.03;;;8.40;62.00;;;;;;5062044;28;20455;-43
2020/12/01 06:16:25;;;;;;;14.90;8.50;;;8.30;61.90;;;;;;5067702;28;20453;-44
2020/12/01 06:19:23;;;;;;;13.47;9.40;;;8.50;63.80;;;;;;5067463;28;20480;-44
2020/12/01 06:22:09;;;;;;;14.33;9.80;;;8.90;64.50;;;;;;5067666;28;20468;-43
2020/12/01 06:24:43;;;;;;;13.57;10.10;;;9.30;63.50;;;;;;5060304;28;20446;-41
2020/12/01 06:27:18;;;;;;;15.00;10.60;;;9.50;62.70;;;;;;5057220;28;20477;-42
2020/12/01 06:29:43;;;;;;;18.57;11.80;;;9.70;61.90;;;;;;5067121;28;20591;-41
2020/12/01 06:32:31;;;;;;;14.77;11.00;;;10.00;59.90;;;;;;5059432;28;20536;-43
2020/12/01 06:35:18;;;;;;;13.90;10.17;;;10.20;58.90;;;;;;5059257;28;20195;-42
2020/12/01 06:38:05;;;;;;;18.43;11.20;;;10.30;57.60;;;;;;5067453;28;20544;-41
2020/12/01 06:40:46;;;;;;;13.83;8.60;;;10.40;57.00;;;;;;5066395;28;20545;-41
2020/12/01 06:43:24;;;;;;;15.83;11.10;;;10.40;56.40;;;;;;5062238;28;20437;-41
2020/12/01 06:45:55;;;;;;;15.00;10.93;;;10.50;56.40;;;;;;5070272;28;20438;-41
2020/12/01 06:48:38;;;;;;;13.87;10.20;;;10.50;56.10;;;;;;5066057;28;20980;-42
2020/12/01 06:51:05;;;;;;;15.43;11.23;;;10.60;55.80;;;;;;5064392;28;20438;-43
2020/12/01 06:53:34;;;;;;;14.23;11.10;;;10.70;55.20;;;;;;5064413;28;20525;-42
2020/12/01 06:56:05;;;;;;;17.43;12.17;;;10.60;54.80;;;;;;5063082;28;20525;-41
2020/12/01 06:58:34;;;;;;;27.17;18.73;;;10.60;55.00;;;;;;5065840;28;20824;-41
2020/12/01 07:01:15;;;;;;;27.73;17.57;;;10.60;55.50;;;;;;5067810;28;20444;-42
2020/12/01 07:03:41;;;;;;;18.37;14.73;;;10.70;55.30;;;;;;5071097;28;20535;-41
2020/12/01 07:06:17;;;;;;;14.37;12.57;;;10.70;55.20;;;;;;5067657;28;21336;-41
2020/12/01 07:08:43;;;;;;;21.43;15.50;;;10.80;55.30;;;;;;5066356;28;20999;-42
2020/12/01 07:11:27;;;;;;;18.47;12.00;;;10.90;55.30;;;;;;5071650;28;20450;-41
2020/12/01 07:14:13;;;;;;;15.87;11.37;;;11.00;55.20;;;;;;5068171;28;20295;-42
2020/12/01 07:16:45;;;;;;;19.00;13.00;;;11.10;54.70;;;;;;5063780;28;20968;-42
2020/12/01 07:19:21;;;;;;;13.97;10.90;;;11.20;54.20;;;;;;5070222;28;20539;-41
2020/12/01 07:22:07;;;;;;;19.63;11.53;;;11.10;53.80;;;;;;5063934;28;20431;-41
2020/12/01 07:25:01;;;;;;;12.33;9.30;;;11.10;54.10;;;;;;5058987;28;20439;-41
2020/12/01 07:28:09;;;;;;;17.40;9.83;;;11.00;54.40;;;;;;5052222;28;20465;-42
2020/12/01 07:31:02;;;;;;;14.60;11.53;;;11.00;54.50;;;;;;5067483;28;20446;-42
2020/12/01 07:33:32;;;;;;;19.75;12.80;;;10.90;54.20;;;;;;5066622;28;20430;-42
2020/12/01 07:36:34;;;;;;;19.43;11.53;;;10.80;54.00;;;;;;5062744;28;20557;-42
2020/12/01 07:39:19;;;;;;;13.53;10.23;;;10.60;54.10;;;;;;5028612;28;20443;-41
2020/12/01 07:41:57;;;;;;;13.07;10.40;;;10.60;54.50;;;;;;5067617;28;20525;-42
2020/12/01 07:44:30;;;;;;;15.70;11.50;;;10.40;54.50;;;;;;5065759;28;20435;-41
2020/12/01 07:47:23;;;;;;;16.57;11.47;;;10.00;54.40;;;;;;5057152;28;20466;-42
2020/12/01 07:50:12;;;;;;;19.17;11.20;;;9.90;56.40;;;;;;5057739;28;20549;-42
2020/12/01 07:52:41;;;;;;;13.57;10.63;;;10.00;55.60;;;;;;5063714;28;21113;-42
2020/12/01 07:55:33;;;;;;;13.70;10.73;;;9.90;56.10;;;;;;5060981;28;20550;-41
2020/12/01 07:58:01;;;;;;;14.53;9.47;;;10.10;55.40;;;;;;5050447;28;20454;-43
2020/12/01 08:00:27;;;;;;;17.40;11.03;;;10.30;55.20;;;;;;5065322;28;20528;-41
2020/12/01 08:03:00;;;;;;;27.80;20.27;;;10.40;54.60;;;;;;5063918;28;20435;-43
2020/12/01 08:05:26;;;;;;;15.53;10.50;;;10.40;54.20;;;;;;5063036;28;20495;-44
2020/12/01 08:07:56;;;;;;;15.97;10.60;;;10.30;54.20;;;;;;5060775;28;20497;-42
2020/12/01 08:10:23;;;;;;;11.23;9.80;;;10.30;54.10;;;;;;5064726;28;20436;-41
2020/12/01 08:12:52;;;;;;;14.80;11.50;;;10.30;54.20;;;;;;5061486;28;20869;-41
2020/12/01 08:15:22;;;;;;;16.20;11.23;;;10.30;54.60;;;;;;5057050;28;20453;-42
2020/12/01 08:17:49;;;;;;;14.43;10.10;;;10.30;54.80;;;;;;5071404;28;21029;-41
2020/12/01 08:20:23;;;;;;;15.37;10.67;;;10.30;55.00;;;;;;5062620;28;20430;-41
2020/12/01 08:23:02;;;;;;;16.37;11.10;;;10.40;54.90;;;;;;5059774;28;20441;-41
2020/12/01 08:25:29;;;;;;;15.77;10.60;;;10.40;54.80;;;;;;5060110;28;20434;-41
2020/12/01 08:28:20;;;;;;;14.93;10.93;;;10.40;54.50;;;;;;5067660;28;20489;-41
2020/12/01 08:31:22;;;;;;;15.90;11.00;;;10.50;54.70;;;;;;5064573;28;20434;-41
2020/12/01 08:34:08;;;;;;;16.23;11.83;;;10.50;55.00;;;;;;5065454;28;20488;-41
2020/12/01 08:36:44;;;;;;;19.87;14.40;;;10.60;55.00;;;;;;5058965;28;20450;-42
2020/12/01 08:39:30;;;;;;;15.43;12.13;;;10.60;54.80;;;;;;5065268;28;20442;-41
2020/12/01 08:42:15;;;;;;;25.50;12.80;;;10.50;54.20;;;;;;5056122;28;20557;-42
2020/12/01 08:44:49;;;;;;;17.33;12.53;;;10.50;54.90;;;;;;5064239;28;20438;-42
2020/12/01 08:47:21;;;;;;;17.30;14.47;;;10.60;54.80;;;;;;5064637;28;20603;-42
2020/12/01 08:49:48;;;;;;;20.23;14.70;;;10.70;54.60;;;;;;5060179;28;20442;-42
2020/12/01 08:52:38;;;;;;;18.60;13.80;;;10.70;54.30;;;;;;5066993;28;20515;-43
2020/12/01 08:55:18;;;;;;;19.03;12.50;;;10.60;53.90;;;;;;5066567;28;20439;-43
2020/12/01 08:57:46;;;;;;;19.93;13.70;;;10.50;54.70;;;;;;5063129;28;20434;-43
2020/12/01 09:00:15;;;;;;;21.10;12.63;;;10.60;54.60;;;;;;5066793;28;20476;-43
2020/12/01 09:02:45;;;;;;;18.27;12.73;;;10.70;54.30;;;;;;5068718;28;20483;-44
2020/12/01 09:05:31;;;;;;;17.07;11.17;;;10.70;54.00;;;;;;5064563;28;20499;-43
2020/12/01 09:11:43;;;;;;;17.97;11.70;;;10.80;54.00;;;;;;5076034;28;20450;-43
2020/12/01 09:21:54;;;;;;;17.03;11.40;;;10.60;54.30;;;;;;5065337;28;20433;-43
2020/12/01 09:24:28;;;;;;;19.70;12.90;;;10.60;54.30;;;;;;5061556;28;20948;-43
2020/12/01 09:27:07;;;;;;;16.87;11.60;;;10.70;54.30;;;;;;5061890;28;20452;-43
2020/12/01 09:29:33;;;;;;;14.37;10.33;;;10.70;54.10;;;;;;5075176;28;21036;-43
2020/12/01 09:31:59;;;;;;;15.23;11.57;;;10.70;54.40;;;;;;5059084;28;20484;-43
2020/12/01 09:34:30;;;;;;;15.37;11.03;;;10.70;53.90;;;;;;5063879;28;20435;-43
2020/12/01 09:36:57;;;;;;;13.23;10.50;;;10.60;54.10;;;;;;5056914;28;20447;-43
2020/12/01 09:39:24;;;;;;;14.90;11.30;;;10.60;54.00;;;;;;5050719;28;20434;-43
2020/12/01 09:42:00;;;;;;;16.67;11.93;;;10.60;54.00;;;;;;5064085;28;20802;-43
2020/12/01 09:47:07;;;;;;;17.33;10.97;;;10.60;54.20;;;;;;5059532;28;20438;-44
2020/12/01 09:49:32;;;;;;;14.93;10.87;;;10.50;54.10;;;;;;5065139;28;20447;-43
2020/12/01 09:52:04;;;;;;;15.57;10.10;;;10.50;54.50;;;;;;5064237;28;20784;-44
2020/12/01 09:57:06;;;;;;;13.87;10.90;;;10.60;55.30;;;;;;5059681;28;20442;-44
2020/12/01 10:10:04;;;;;;;16.13;10.83;;;10.90;54.30;;;;;;5067683;28;20879;-43
2020/12/01 10:29:19;;;;;;;15.80;12.30;;;11.00;54.50;;;;;;5061327;28;20486;-42
2020/12/01 10:36:41;;;;;;;16.03;10.83;;;11.20;54.10;;;;;;5066035;28;20473;-43
2020/12/01 10:39:08;;;;;;;18.00;12.13;;;11.30;54.00;;;;;;5066941;28;20491;-42
2020/12/01 10:41:34;;;;;;;15.73;11.87;;;11.30;54.10;;;;;;5067788;28;20252;-42
2020/12/01 10:44:01;;;;;;;20.93;13.50;;;11.30;53.60;;;;;;5067727;28;20921;-43
2020/12/01 10:46:28;;;;;;;18.47;13.87;;;11.40;53.50;;;;;;5070861;28;20434;-43
2020/12/01 10:48:54;;;;;;;21.80;15.80;;;11.50;53.50;;;;;;5063951;28;20474;-43
2020/12/01 10:51:20;;;;;;;18.17;14.80;;;11.50;53.50;;;;;;5069749;28;20434;-43
2020/12/01 10:53:45;;;;;;;19.20;15.00;;;11.50;53.40;;;;;;5063196;28;20775;-43
2020/12/01 10:56:11;;;;;;;19.97;14.03;;;11.50;53.40;;;;;;5061693;28;20188;-43
2020/12/01 10:58:37;;;;;;;21.50;15.80;;;11.60;53.40;;;;;;5057909;28;21073;-45
2020/12/01 11:01:02;;;;;;;20.93;15.87;;;11.60;53.40;;;;;;5070188;28;20203;-44
2020/12/01 11:03:29;;;;;;;18.50;15.47;;;11.60;53.20;;;;;;5066939;28;20196;-45
2020/12/01 11:05:54;;;;;;;21.90;15.90;;;11.60;53.40;;;;;;5064569;28;20232;-44
2020/12/01 11:08:20;;;;;;;19.20;15.30;;;11.50;53.00;;;;;;5063350;28;20514;-44
2020/12/01 11:10:46;;;;;;;19.20;14.70;;;11.50;53.10;;;;;;5066762;28;20196;-44
2020/12/01 11:13:11;;;;;;;17.27;13.60;;;11.40;53.20;;;;;;5059920;28;20514;-44
2020/12/01 11:15:37;;;;;;;20.17;14.30;;;11.40;53.40;;;;;;5061005;28;20298;-43
2020/12/01 11:18:06;;;;;;;19.23;13.70;;;11.40;53.50;;;;;;5067962;28;20249;-44
2020/12/01 11:20:32;;;;;;;18.80;15.67;;;11.30;54.30;;;;;;5069048;28;20192;-44
2020/12/01 11:22:57;;;;;;;21.23;16.17;;;11.30;53.80;;;;;;5070846;28;20442;-44
2020/12/01 11:25:23;;;;;;;21.43;15.20;;;11.20;53.90;;;;;;5061530;28;20200;-44
2020/12/01 11:27:49;;;;;;;20.50;16.50;;;11.20;54.00;;;;;;5061802;28;20232;-44
2020/12/01 11:30:16;;;;;;;19.50;14.60;;;11.10;53.80;;;;;;5065104;28;20192;-44
2020/12/01 11:32:41;;;;;;;21.20;14.43;;;11.20;53.90;;;;;;5062263;28;20442;-43
2020/12/01 11:35:07;;;;;;;21.47;14.83;;;11.30;53.90;;;;;;5068740;28;20423;-44
2020/12/01 11:37:33;;;;;;;18.50;14.60;;;11.30;53.80;;;;;;5061494;28;20196;-44
2020/12/01 11:39:59;;;;;;;22.00;13.77;;;11.30;53.70;;;;;;5067719;28;20196;-44
2020/12/01 11:42:25;;;;;;;15.40;12.07;;;11.30;53.60;;;;;;5062714;28;20195;-43
2020/12/01 11:44:50;;;;;;;25.33;13.70;;;11.30;53.70;;;;;;5062497;28;20238;-44
2020/12/01 11:47:16;;;;;;;16.83;13.70;;;11.10;53.50;;;;;;5066533;28;20842;-44
2020/12/01 11:49:41;;;;;;;16.97;12.83;;;11.00;54.20;;;;;;5060391;28;20200;-43
2020/12/01 11:52:07;;;;;;;18.67;12.43;;;11.10;54.10;;;;;;5062701;28;20195;-43
2020/12/01 11:54:33;;;;;;;15.13;12.20;;;11.00;53.80;;;;;;5068083;28;20245;-43
2020/12/01 11:56:58;;;;;;;17.50;12.43;;;10.90;54.00;;;;;;5060467;28;20226;-43
2020/12/01 11:59:24;;;;;;;18.23;12.77;;;10.90;54.30;;;;;;5059414;28;20220;-43
2020/12/01 12:01:49;;;;;;;14.97;13.10;;;10.70;54.80;;;;;;5060999;28;20188;-43
2020/12/01 12:04:15;;;;;;;19.97;13.67;;;10.50;55.80;;;;;;5067883;28;20218;-43
2020/12/01 12:06:41;;;;;;;20.83;13.70;;;10.40;55.60;;;;;;5064730;28;20240;-43
2020/12/01 12:09:10;;;;;;;20.27;13.47;;;10.30;55.70;;;;;;5068460;28;20227;-43
2020/12/01 12:11:36;;;;;;;27.53;17.07;;;10.20;55.90;;;;;;5069305;28;20238;-43
2020/12/01 12:14:03;;;;;;;25.70;14.30;;;10.10;56.00;;;;;;5058758;28;20924;-43
2020/12/01 12:16:29;;;;;;;21.37;12.50;;;10.10;56.20;;;;;;5065885;28;20196;-43
2020/12/01 12:18:54;;;;;;;20.20;12.57;;;10.00;56.30;;;;;;5069703;28;20434;-43
2020/12/01 12:21:20;;;;;;;21.13;13.40;;;10.00;56.80;;;;;;5066834;28;20192;-43
2020/12/01 12:23:47;;;;;;;22.23;12.70;;;9.90;58.40;;;;;;5058598;28;20192;-43
2020/12/01 12:26:13;;;;;;;19.37;13.53;;;9.90;58.60;;;;;;5065797;28;20265;-43
2020/12/01 12:28:39;;;;;;;17.20;13.17;;;9.90;58.70;;;;;;5061229;28;20481;-43
2020/12/01 12:31:05;;;;;;;17.43;12.23;;;9.90;58.60;;;;;;5070615;28;20438;-43
2020/12/01 12:33:31;;;;;;;17.27;12.17;;;9.90;58.60;;;;;;5067291;28;20221;-43
2020/12/01 12:35:58;;;;;;;22.57;12.20;;;9.90;58.50;;;;;;5069375;28;20438;-43
2020/12/01 12:38:24;;;;;;;17.67;11.90;;;9.80;58.60;;;;;;5066714;28;20187;-43
2020/12/01 12:40:51;;;;;;;17.83;12.20;;;9.70;58.50;;;;;;5065888;28;20427;-43
2020/12/01 12:43:18;;;;;;;18.80;13.03;;;9.70;58.80;;;;;;5058445;28;20431;-43
2020/12/01 12:45:44;;;;;;;17.10;13.50;;;9.70;58.80;;;;;;5056973;28;20442;-43
2020/12/01 12:48:10;;;;;;;16.87;12.30;;;9.70;58.90;;;;;;5067390;28;20485;-43
2020/12/01 12:50:36;;;;;;;15.70;11.97;;;9.70;59.00;;;;;;5061011;28;20520;-43
2020/12/01 12:53:02;;;;;;;16.53;12.87;;;9.60;59.20;;;;;;5068125;28;20470;-43
2020/12/01 12:55:28;;;;;;;15.17;11.17;;;9.60;59.40;;;;;;5064520;28;20294;-43
2020/12/01 12:57:53;;;;;;;15.90;10.67;;;9.60;59.50;;;;;;5056963;28;20568;-42
2020/12/01 13:00:19;;;;;;;16.17;11.73;;;9.70;59.40;;;;;;5062741;28;20212;-42
2020/12/01 13:02:45;;;;;;;19.00;12.10;;;9.70;59.50;;;;;;5062419;28;20200;-42
2020/12/01 13:05:11;;;;;;;16.57;11.30;;;9.70;59.50;;;;;;5065920;28;20441;-42
2020/12/01 13:07:36;;;;;;;16.53;11.60;;;9.70;59.40;;;;;;5060500;28;20244;-42
2020/12/01 13:10:03;;;;;;;15.60;12.00;;;9.70;59.50;;;;;;5064709;28;20200;-42
2020/12/01 13:12:29;;;;;;;17.70;11.80;;;9.50;59.70;;;;;;5061217;28;20556;-42
2020/12/01 13:14:55;;;;;;;18.50;11.60;;;9.50;60.10;;;;;;5060021;28;20442;-42
2020/12/01 13:17:20;;;;;;;15.97;12.20;;;9.40;60.10;;;;;;5065500;28;20191;-42
2020/12/01 13:19:46;;;;;;;20.03;12.43;;;9.40;60.30;;;;;;5056944;28;20222;-42
2020/12/01 13:22:11;;;;;;;17.20;11.90;;;9.50;60.20;;;;;;5063087;28;20659;-42
2020/12/01 13:24:37;;;;;;;14.03;10.87;;;9.40;60.40;;;;;;5065538;28;20188;-42
2020/12/01 13:27:02;;;;;;;16.73;12.80;;;9.20;60.70;;;;;;5058571;28;20687;-42
2020/12/01 13:29:28;;;;;;;16.83;11.60;;;9.20;61.00;;;;;;5066751;28;20204;-42
2020/12/01 13:31:54;;;;;;;16.47;12.70;;;9.20;60.90;;;;;;5067372;28;20261;-42
2020/12/01 13:34:19;;;;;;;19.10;13.10;;;9.30;60.90;;;;;;5067255;28;20192;-42
2020/12/01 13:36:45;;;;;;;20.47;12.93;;;9.30;60.50;;;;;;5060050;28;20192;-42
2020/12/01 13:39:10;;;;;;;16.37;11.67;;;9.30;60.30;;;;;;5065786;28;20196;-42
2020/12/01 13:41:36;;;;;;;16.50;11.80;;;9.30;60.10;;;;;;5064443;28;20635;-41
2020/12/01 13:44:02;;;;;;;18.23;12.50;;;9.30;59.90;;;;;;5066989;28;20230;-41
2020/12/01 13:46:28;;;;;;;15.90;12.13;;;9.30;59.80;;;;;;5062484;28;20188;-42